02PN weather

Public forecast

Using degrees Fahrenheit for public forecast. Weather courtesy of forecast.io.

Closest aviation weather report (METAR) to Peco Berwyn Heliport

Closest report is Brandywine Regional Airport, 7.5 nm (13.9 km) SW. Retrieved 2020/08/13 03:15 UTC (0 seconds ago):

KOQN 130315Z AUTO 00000KT 10SM CLR 23/22 A3008 RMK AO2

Closest aviation forecast (TAF) to Peco Berwyn Heliport

Closest forecast is Philadelphia International Airport, 15.4 nm (28.6 km) SE. Retrieved 2020-08-13 00:22 UTC (3 hours ago):

TAF KPHL 122320Z 1300/1406 VRB03KT P6SM BKN150 FM130700 VRB02KT 2SM BR OVC005 FM131300 09005KT P6SM BKN150 PROB30 1315/1320 4SM TSRA BKN025CB FM132000 09005KT P6SM OVC050 PROB30 1320/1324 4SM TSRA BKN025CB FM140000 08005KT P6SM OVC150